sensor_id;sensor_type;location;lat;lon;timestamp;pressure;altitude;pressure_sealevel;temperature;humidity
28448;BME280;15675;52.870;-1.416;2023-04-03T00:01:27;102684.50;;;7.07;72.42
28448;BME280;15675;52.870;-1.416;2023-04-03T00:03:54;102675.56;;;7.01;72.32
28448;BME280;15675;52.870;-1.416;2023-04-03T00:06:20;102683.09;;;6.96;72.52
28448;BME280;15675;52.870;-1.416;2023-04-03T00:08:45;102683.38;;;7.02;72.37
28448;BME280;15675;52.870;-1.416;2023-04-03T00:11:11;102685.38;;;6.90;72.11
28448;BME280;15675;52.870;-1.416;2023-04-03T00:13:38;102685.88;;;6.83;72.18
28448;BME280;15675;52.870;-1.416;2023-04-03T00:16:05;102681.75;;;6.86;71.40
28448;BME280;15675;52.870;-1.416;2023-04-03T00:18:31;102680.53;;;6.80;70.89
28448;BME280;15675;52.870;-1.416;2023-04-03T00:20:57;102670.97;;;6.77;70.47
28448;BME280;15675;52.870;-1.416;2023-04-03T00:23:22;102677.09;;;6.79;71.15
28448;BME280;15675;52.870;-1.416;2023-04-03T00:25:49;102673.06;;;6.84;71.18
28448;BME280;15675;52.870;-1.416;2023-04-03T00:28:15;102675.72;;;6.86;70.77
28448;BME280;15675;52.870;-1.416;2023-04-03T00:30:41;102683.03;;;6.95;70.87
28448;BME280;15675;52.870;-1.416;2023-04-03T00:33:06;102670.97;;;6.95;70.70
28448;BME280;15675;52.870;-1.416;2023-04-03T00:35:33;102675.94;;;6.90;70.65
28448;BME280;15675;52.870;-1.416;2023-04-03T00:37:59;102679.47;;;6.93;70.26
28448;BME280;15675;52.870;-1.416;2023-04-03T00:40:26;102682.19;;;6.78;69.31
28448;BME280;15675;52.870;-1.416;2023-04-03T00:42:57;102670.66;;;6.71;69.68
28448;BME280;15675;52.870;-1.416;2023-04-03T00:45:29;102682.47;;;6.49;69.76
28448;BME280;15675;52.870;-1.416;2023-04-03T00:47:56;102684.00;;;6.29;71.04
28448;BME280;15675;52.870;-1.416;2023-04-03T00:50:22;102680.69;;;6.48;72.64
28448;BME280;15675;52.870;-1.416;2023-04-03T00:52:48;102686.97;;;6.37;73.81
28448;BME280;15675;52.870;-1.416;2023-04-03T00:55:15;102684.88;;;6.46;74.32
28448;BME280;15675;52.870;-1.416;2023-04-03T00:57:42;102682.13;;;6.60;74.92
28448;BME280;15675;52.870;-1.416;2023-04-03T01:00:11;102685.03;;;6.66;74.91
28448;BME280;15675;52.870;-1.416;2023-04-03T01:02:37;102679.22;;;6.70;75.04
28448;BME280;15675;52.870;-1.416;2023-04-03T01:05:04;102688.00;;;6.73;74.84
28448;BME280;15675;52.870;-1.416;2023-04-03T01:07:30;102683.41;;;6.68;74.50
28448;BME280;15675;52.870;-1.416;2023-04-03T01:09:58;102685.97;;;6.68;74.71
28448;BME280;15675;52.870;-1.416;2023-04-03T01:12:26;102677.13;;;6.63;74.46
28448;BME280;15675;52.870;-1.416;2023-04-03T01:14:58;102687.53;;;6.48;74.58
28448;BME280;15675;52.870;-1.416;2023-04-03T01:25:49;102680.13;;;6.04;74.10
28448;BME280;15675;52.870;-1.416;2023-04-03T01:28:41;102673.78;;;6.14;73.76
28448;BME280;15675;52.870;-1.416;2023-04-03T01:31:23;102670.06;;;6.26;73.52
28448;BME280;15675;52.870;-1.416;2023-04-03T01:33:50;102669.41;;;6.30;72.96
28448;BME280;15675;52.870;-1.416;2023-04-03T01:36:22;102664.38;;;5.52;73.03
28448;BME280;15675;52.870;-1.416;2023-04-03T01:38:49;102665.88;;;5.80;73.54
28448;BME280;15675;52.870;-1.416;2023-04-03T01:41:15;102665.47;;;5.88;73.12
28448;BME280;15675;52.870;-1.416;2023-04-03T01:43:41;102669.84;;;5.90;72.41
28448;BME280;15675;52.870;-1.416;2023-04-03T01:46:07;102658.78;;;5.76;71.19
28448;BME280;15675;52.870;-1.416;2023-04-03T01:48:33;102660.31;;;5.88;71.46
28448;BME280;15675;52.870;-1.416;2023-04-03T01:50:58;102663.59;;;5.69;70.58
28448;BME280;15675;52.870;-1.416;2023-04-03T01:53:24;102663.91;;;4.68;73.20
28448;BME280;15675;52.870;-1.416;2023-04-03T01:55:50;102664.41;;;4.47;76.95
28448;BME280;15675;52.870;-1.416;2023-04-03T01:58:15;102671.25;;;4.19;79.68
28448;BME280;15675;52.870;-1.416;2023-04-03T02:00:41;102677.69;;;4.25;83.72
28448;BME280;15675;52.870;-1.416;2023-04-03T02:03:06;102671.19;;;4.75;85.51
28448;BME280;15675;52.870;-1.416;2023-04-03T02:05:32;102673.06;;;5.08;84.41
28448;BME280;15675;52.870;-1.416;2023-04-03T02:07:58;102668.06;;;5.26;83.66
28448;BME280;15675;52.870;-1.416;2023-04-03T02:10:23;102664.09;;;5.16;82.30
28448;BME280;15675;52.870;-1.416;2023-04-03T02:12:49;102664.22;;;5.34;81.67
28448;BME280;15675;52.870;-1.416;2023-04-03T02:15:14;102663.59;;;5.38;80.12
28448;BME280;15675;52.870;-1.416;2023-04-03T02:17:40;102666.50;;;5.44;78.78
28448;BME280;15675;52.870;-1.416;2023-04-03T02:20:06;102657.75;;;5.41;77.36
28448;BME280;15675;52.870;-1.416;2023-04-03T02:22:34;102658.63;;;5.41;76.88
28448;BME280;15675;52.870;-1.416;2023-04-03T02:24:59;102668.19;;;5.59;76.17
28448;BME280;15675;52.870;-1.416;2023-04-03T02:27:26;102665.25;;;5.52;75.87
28448;BME280;15675;52.870;-1.416;2023-04-03T02:29:51;102661.72;;;5.50;75.41
28448;BME280;15675;52.870;-1.416;2023-04-03T02:32:17;102665.25;;;5.52;75.33
28448;BME280;15675;52.870;-1.416;2023-04-03T02:34:42;102659.84;;;5.48;74.47
28448;BME280;15675;52.870;-1.416;2023-04-03T02:37:08;102666.16;;;5.53;75.14
28448;BME280;15675;52.870;-1.416;2023-04-03T02:39:34;102663.84;;;5.43;74.34
28448;BME280;15675;52.870;-1.416;2023-04-03T02:41:59;102660.09;;;5.52;74.96
28448;BME280;15675;52.870;-1.416;2023-04-03T02:44:25;102662.50;;;5.64;74.48
28448;BME280;15675;52.870;-1.416;2023-04-03T02:46:51;102656.66;;;5.68;74.52
28448;BME280;15675;52.870;-1.416;2023-04-03T02:49:16;102657.34;;;5.18;73.75
28448;BME280;15675;52.870;-1.416;2023-04-03T02:51:42;102655.00;;;5.23;75.03
28448;BME280;15675;52.870;-1.416;2023-04-03T02:54:08;102650.56;;;5.35;75.67
28448;BME280;15675;52.870;-1.416;2023-04-03T02:56:33;102659.69;;;5.45;76.13
28448;BME280;15675;52.870;-1.416;2023-04-03T02:58:59;102655.03;;;5.54;76.08
28448;BME280;15675;52.870;-1.416;2023-04-03T03:01:25;102654.50;;;5.13;75.23
28448;BME280;15675;52.870;-1.416;2023-04-03T03:03:54;102657.72;;;4.79;76.81
28448;BME280;15675;52.870;-1.416;2023-04-03T03:06:19;102659.75;;;4.85;78.41
28448;BME280;15675;52.870;-1.416;2023-04-03T03:08:45;102660.28;;;4.79;78.80
28448;BME280;15675;52.870;-1.416;2023-04-03T03:11:11;102658.41;;;5.07;80.77
28448;BME280;15675;52.870;-1.416;2023-04-03T03:13:36;102656.25;;;5.14;80.84
28448;BME280;15675;52.870;-1.416;2023-04-03T03:16:02;102655.19;;;5.26;80.54
28448;BME280;15675;52.870;-1.416;2023-04-03T03:18:29;102648.44;;;5.28;80.22
28448;BME280;15675;52.870;-1.416;2023-04-03T03:20:56;102654.63;;;5.31;79.30
28448;BME280;15675;52.870;-1.416;2023-04-03T03:23:24;102657.97;;;5.29;78.69
28448;BME280;15675;52.870;-1.416;2023-04-03T03:25:57;102653.69;;;5.14;77.97
28448;BME280;15675;52.870;-1.416;2023-04-03T03:28:23;102654.34;;;4.95;77.53
28448;BME280;15675;52.870;-1.416;2023-04-03T03:30:49;102653.25;;;5.07;76.77
28448;BME280;15675;52.870;-1.416;2023-04-03T03:33:14;102646.00;;;4.84;76.03
28448;BME280;15675;52.870;-1.416;2023-04-03T03:35:41;102650.44;;;4.87;75.86
28448;BME280;15675;52.870;-1.416;2023-04-03T03:38:07;102649.63;;;4.88;76.38
28448;BME280;15675;52.870;-1.416;2023-04-03T03:40:32;102651.94;;;4.98;75.33
28448;BME280;15675;52.870;-1.416;2023-04-03T03:42:58;102653.00;;;5.02;74.60
28448;BME280;15675;52.870;-1.416;2023-04-03T03:45:23;102646.44;;;4.77;73.74
28448;BME280;15675;52.870;-1.416;2023-04-03T03:47:48;102652.47;;;4.78;74.16
28448;BME280;15675;52.870;-1.416;2023-04-03T03:50:14;102653.53;;;4.96;74.99
28448;BME280;15675;52.870;-1.416;2023-04-03T03:52:40;102643.78;;;4.91;74.98
28448;BME280;15675;52.870;-1.416;2023-04-03T03:55:06;102643.97;;;4.79;74.85
28448;BME280;15675;52.870;-1.416;2023-04-03T03:57:31;102649.81;;;4.91;75.11
28448;BME280;15675;52.870;-1.416;2023-04-03T03:59:57;102647.06;;;4.88;75.11
28448;BME280;15675;52.870;-1.416;2023-04-03T04:02:22;102645.91;;;4.98;74.96
28448;BME280;15675;52.870;-1.416;2023-04-03T04:04:48;102644.28;;;5.00;74.88
28448;BME280;15675;52.870;-1.416;2023-04-03T04:07:14;102648.13;;;4.92;74.29
28448;BME280;15675;52.870;-1.416;2023-04-03T04:09:40;102642.72;;;4.87;74.12
28448;BME280;15675;52.870;-1.416;2023-04-03T04:12:05;102651.69;;;4.79;73.80
28448;BME280;15675;52.870;-1.416;2023-04-03T04:14:31;102649.75;;;4.75;74.59
28448;BME280;15675;52.870;-1.416;2023-04-03T04:16:56;102651.06;;;4.68;74.49
28448;BME280;15675;52.870;-1.416;2023-04-03T04:19:22;102653.47;;;4.65;75.11
28448;BME280;15675;52.870;-1.416;2023-04-03T04:21:47;102650.97;;;4.66;74.48
28448;BME280;15675;52.870;-1.416;2023-04-03T04:24:13;102647.66;;;4.54;74.35
28448;BME280;15675;52.870;-1.416;2023-04-03T04:26:38;102647.84;;;4.57;74.65
28448;BME280;15675;52.870;-1.416;2023-04-03T04:29:04;102644.09;;;4.37;74.59
28448;BME280;15675;52.870;-1.416;2023-04-03T04:31:29;102646.31;;;4.46;75.01
28448;BME280;15675;52.870;-1.416;2023-04-03T04:33:55;102650.63;;;4.60;75.03
28448;BME280;15675;52.870;-1.416;2023-04-03T04:36:20;102640.59;;;4.65;75.12
28448;BME280;15675;52.870;-1.416;2023-04-03T04:38:46;102640.41;;;4.62;75.05
28448;BME280;15675;52.870;-1.416;2023-04-03T04:41:12;102636.75;;;4.58;74.59
28448;BME280;15675;52.870;-1.416;2023-04-03T04:43:38;102643.13;;;4.50;73.80
28448;BME280;15675;52.870;-1.416;2023-04-03T04:46:08;102633.41;;;4.59;75.17
28448;BME280;15675;52.870;-1.416;2023-04-03T04:48:35;102637.84;;;4.62;74.99
28448;BME280;15675;52.870;-1.416;2023-04-03T04:51:02;102644.56;;;4.60;75.32
28448;BME280;15675;52.870;-1.416;2023-04-03T04:53:27;102643.03;;;4.48;74.47
28448;BME280;15675;52.870;-1.416;2023-04-03T04:55:53;102638.16;;;4.38;73.94
28448;BME280;15675;52.870;-1.416;2023-04-03T04:58:19;102633.63;;;4.34;73.31
28448;BME280;15675;52.870;-1.416;2023-04-03T05:00:45;102636.38;;;4.22;72.71
28448;BME280;15675;52.870;-1.416;2023-04-03T05:03:11;102635.84;;;4.28;72.61
28448;BME280;15675;52.870;-1.416;2023-04-03T05:05:36;102637.06;;;4.20;72.31
28448;BME280;15675;52.870;-1.416;2023-04-03T05:08:03;102639.81;;;4.23;72.59
28448;BME280;15675;52.870;-1.416;2023-04-03T05:10:29;102636.19;;;4.19;72.99
28448;BME280;15675;52.870;-1.416;2023-04-03T05:12:55;102637.50;;;4.12;72.53
28448;BME280;15675;52.870;-1.416;2023-04-03T05:15:20;102640.22;;;4.15;72.81
28448;BME280;15675;52.870;-1.416;2023-04-03T05:17:46;102637.16;;;4.21;72.92
28448;BME280;15675;52.870;-1.416;2023-04-03T05:20:12;102648.59;;;4.26;73.27
28448;BME280;15675;52.870;-1.416;2023-04-03T05:22:37;102647.09;;;4.30;74.23
28448;BME280;15675;52.870;-1.416;2023-04-03T05:25:04;102654.03;;;4.31;74.50
28448;BME280;15675;52.870;-1.416;2023-04-03T05:27:29;102648.69;;;4.28;74.44
28448;BME280;15675;52.870;-1.416;2023-04-03T05:29:55;102654.28;;;4.21;75.01
28448;BME280;15675;52.870;-1.416;2023-04-03T05:32:22;102656.53;;;4.16;74.99
28448;BME280;15675;52.870;-1.416;2023-04-03T05:34:47;102654.09;;;4.18;75.23
28448;BME280;15675;52.870;-1.416;2023-04-03T05:37:13;102654.78;;;4.15;75.81
28448;BME280;15675;52.870;-1.416;2023-04-03T05:39:38;102656.44;;;3.86;75.89
28448;BME280;15675;52.870;-1.416;2023-04-03T05:42:07;102667.66;;;3.60;77.46
28448;BME280;15675;52.870;-1.416;2023-04-03T05:44:33;102661.88;;;3.77;80.44
28448;BME280;15675;52.870;-1.416;2023-04-03T05:46:58;102666.66;;;3.71;81.49
28448;BME280;15675;52.870;-1.416;2023-04-03T05:49:24;102673.34;;;3.83;82.48
28448;BME280;15675;52.870;-1.416;2023-04-03T05:51:50;102669.97;;;3.97;83.11
28448;BME280;15675;52.870;-1.416;2023-04-03T05:54:26;102678.78;;;4.15;82.95
28448;BME280;15675;52.870;-1.416;2023-04-03T05:56:52;102672.81;;;4.30;82.55
28448;BME280;15675;52.870;-1.416;2023-04-03T05:59:18;102666.81;;;4.44;82.51
28448;BME280;15675;52.870;-1.416;2023-04-03T06:01:45;102666.88;;;4.31;80.82
28448;BME280;15675;52.870;-1.416;2023-04-03T06:04:11;102668.19;;;4.24;80.09
28448;BME280;15675;52.870;-1.416;2023-04-03T06:06:54;102667.06;;;4.34;79.48
28448;BME280;15675;52.870;-1.416;2023-04-03T06:09:22;102671.75;;;4.26;79.76
28448;BME280;15675;52.870;-1.416;2023-04-03T06:11:49;102670.72;;;4.09;78.64
28448;BME280;15675;52.870;-1.416;2023-04-03T06:14:15;102674.31;;;4.26;80.28
28448;BME280;15675;52.870;-1.416;2023-04-03T06:16:41;102673.97;;;4.35;80.89
28448;BME280;15675;52.870;-1.416;2023-04-03T06:19:09;102683.03;;;3.87;81.32
28448;BME280;15675;52.870;-1.416;2023-04-03T06:21:36;102675.31;;;3.87;83.33
28448;BME280;15675;52.870;-1.416;2023-04-03T06:24:03;102691.59;;;3.32;84.43
28448;BME280;15675;52.870;-1.416;2023-04-03T06:26:29;102684.25;;;3.52;87.40
28448;BME280;15675;52.870;-1.416;2023-04-03T06:28:54;102690.00;;;3.34;88.15
28448;BME280;15675;52.870;-1.416;2023-04-03T06:31:21;102685.44;;;3.30;91.08
28448;BME280;15675;52.870;-1.416;2023-04-03T06:33:47;102683.78;;;3.44;91.93
28448;BME280;15675;52.870;-1.416;2023-04-03T06:36:12;102698.75;;;3.78;92.44
28448;BME280;15675;52.870;-1.416;2023-04-03T06:38:38;102684.41;;;3.82;91.84
28448;BME280;15675;52.870;-1.416;2023-04-03T06:41:04;102683.06;;;4.02;93.67
28448;BME280;15675;52.870;-1.416;2023-04-03T06:43:29;102688.88;;;3.57;94.81
28448;BME280;15675;52.870;-1.416;2023-04-03T06:45:56;102687.72;;;4.07;95.93
28448;BME280;15675;52.870;-1.416;2023-04-03T06:48:22;102685.22;;;4.22;94.98
28448;BME280;15675;52.870;-1.416;2023-04-03T06:50:48;102686.56;;;4.30;93.87
28448;BME280;15675;52.870;-1.416;2023-04-03T06:53:14;102674.81;;;3.92;93.82
28448;BME280;15675;52.870;-1.416;2023-04-03T06:55:40;102677.91;;;3.87;95.51
28448;BME280;15675;52.870;-1.416;2023-04-03T06:58:06;102682.31;;;4.31;96.62
28448;BME280;15675;52.870;-1.416;2023-04-03T07:00:32;102681.19;;;4.41;95.79
28448;BME280;15675;52.870;-1.416;2023-04-03T07:02:57;102679.16;;;4.22;95.51
28448;BME280;15675;52.870;-1.416;2023-04-03T07:05:24;102680.06;;;4.65;97.06
28448;BME280;15675;52.870;-1.416;2023-04-03T07:07:50;102677.41;;;4.94;97.39
28448;BME280;15675;52.870;-1.416;2023-04-03T07:10:15;102681.75;;;5.25;96.97
28448;BME280;15675;52.870;-1.416;2023-04-03T07:12:41;102680.84;;;5.39;96.42
28448;BME280;15675;52.870;-1.416;2023-04-03T07:15:07;102667.09;;;5.24;94.62
28448;BME280;15675;52.870;-1.416;2023-04-03T07:17:33;102665.13;;;5.34;94.92
28448;BME280;15675;52.870;-1.416;2023-04-03T07:19:59;102674.34;;;5.46;94.06
28448;BME280;15675;52.870;-1.416;2023-04-03T07:22:24;102669.53;;;5.52;93.98
28448;BME280;15675;52.870;-1.416;2023-04-03T07:24:50;102672.69;;;4.72;94.63
28448;BME280;15675;52.870;-1.416;2023-04-03T07:27:15;102668.34;;;5.15;95.46
28448;BME280;15675;52.870;-1.416;2023-04-03T07:29:43;102670.09;;;5.31;96.73
28448;BME280;15675;52.870;-1.416;2023-04-03T07:32:09;102678.09;;;5.21;95.15
28448;BME280;15675;52.870;-1.416;2023-04-03T07:34:36;102671.88;;;5.64;95.57
28448;BME280;15675;52.870;-1.416;2023-04-03T07:37:02;102672.72;;;6.11;95.34
28448;BME280;15675;52.870;-1.416;2023-04-03T07:39:28;102677.09;;;5.49;93.61
28448;BME280;15675;52.870;-1.416;2023-04-03T07:41:54;102673.41;;;5.14;95.07
28448;BME280;15675;52.870;-1.416;2023-04-03T07:44:23;102677.44;;;4.79;96.86
28448;BME280;15675;52.870;-1.416;2023-04-03T07:46:48;102679.53;;;4.71;100.00
28448;BME280;15675;52.870;-1.416;2023-04-03T07:49:16;102678.44;;;4.53;100.00
28448;BME280;15675;52.870;-1.416;2023-04-03T07:51:44;102673.44;;;4.99;100.00
28448;BME280;15675;52.870;-1.416;2023-04-03T07:54:09;102674.13;;;4.81;100.00
28448;BME280;15675;52.870;-1.416;2023-04-03T07:56:35;102673.69;;;5.04;100.00
28448;BME280;15675;52.870;-1.416;2023-04-03T07:59:01;102675.97;;;5.14;100.00
28448;BME280;15675;52.870;-1.416;2023-04-03T08:01:26;102679.09;;;5.23;100.00
28448;BME280;15675;52.870;-1.416;2023-04-03T08:03:52;102677.50;;;5.88;100.00
28448;BME280;15675;52.870;-1.416;2023-04-03T08:06:18;102674.53;;;5.97;100.00
28448;BME280;15675;52.870;-1.416;2023-04-03T08:08:44;102675.56;;;5.52;100.00
28448;BME280;15675;52.870;-1.416;2023-04-03T08:11:10;102673.97;;;5.86;100.00
28448;BME280;15675;52.870;-1.416;2023-04-03T08:13:35;102677.19;;;5.35;100.00
28448;BME280;15675;52.870;-1.416;2023-04-03T08:16:12;102667.13;;;5.55;100.00
28448;BME280;15675;52.870;-1.416;2023-04-03T08:18:38;102675.31;;;5.79;100.00
28448;BME280;15675;52.870;-1.416;2023-04-03T08:21:09;102671.28;;;6.16;100.00
28448;BME280;15675;52.870;-1.416;2023-04-03T08:23:36;102671.19;;;6.31;100.00
28448;BME280;15675;52.870;-1.416;2023-04-03T08:26:07;102669.31;;;6.28;100.00
28448;BME280;15675;52.870;-1.416;2023-04-03T08:28:32;102673.44;;;6.25;100.00
28448;BME280;15675;52.870;-1.416;2023-04-03T08:31:02;102671.06;;;5.96;100.00
28448;BME280;15675;52.870;-1.416;2023-04-03T08:33:28;102663.81;;;5.89;100.00
28448;BME280;15675;52.870;-1.416;2023-04-03T08:35:53;102663.94;;;6.40;100.00
28448;BME280;15675;52.870;-1.416;2023-04-03T08:38:19;102658.88;;;6.60;100.00
28448;BME280;15675;52.870;-1.416;2023-04-03T08:40:45;102658.50;;;6.35;100.00
28448;BME280;15675;52.870;-1.416;2023-04-03T08:43:31;102662.41;;;6.27;100.00
28448;BME280;15675;52.870;-1.416;2023-04-03T08:46:01;102662.56;;;6.30;100.00
28448;BME280;15675;52.870;-1.416;2023-04-03T08:48:36;102663.06;;;6.74;100.00
28448;BME280;15675;52.870;-1.416;2023-04-03T08:51:11;102666.16;;;7.01;100.00
28448;BME280;15675;52.870;-1.416;2023-04-03T08:53:43;102664.25;;;6.81;100.00
28448;BME280;15675;52.870;-1.416;2023-04-03T08:56:13;102656.16;;;6.91;100.00
28448;BME280;15675;52.870;-1.416;2023-04-03T08:58:55;102664.94;;;6.95;100.00
28448;BME280;15675;52.870;-1.416;2023-04-03T09:01:26;102666.25;;;6.86;100.00
28448;BME280;15675;52.870;-1.416;2023-04-03T09:03:54;102660.47;;;7.08;100.00
28448;BME280;15675;52.870;-1.416;2023-04-03T09:06:22;102661.94;;;7.21;100.00
28448;BME280;15675;52.870;-1.416;2023-04-03T09:11:26;102660.81;;;6.98;99.52
28448;BME280;15675;52.870;-1.416;2023-04-03T09:14:01;102665.56;;;7.25;98.30
28448;BME280;15675;52.870;-1.416;2023-04-03T09:19:15;102657.72;;;6.87;92.07
28448;BME280;15675;52.870;-1.416;2023-04-03T09:21:45;102651.53;;;7.02;92.17
28448;BME280;15675;52.870;-1.416;2023-04-03T09:24:14;102660.31;;;7.23;91.67
28448;BME280;15675;52.870;-1.416;2023-04-03T09:26:48;102652.31;;;7.01;90.24
28448;BME280;15675;52.870;-1.416;2023-04-03T09:29:22;102654.91;;;6.83;91.07
28448;BME280;15675;52.870;-1.416;2023-04-03T09:31:50;102651.22;;;7.14;90.64
28448;BME280;15675;52.870;-1.416;2023-04-03T09:34:22;102646.97;;;7.14;89.30
28448;BME280;15675;52.870;-1.416;2023-04-03T09:36:51;102646.34;;;7.38;87.44
28448;BME280;15675;52.870;-1.416;2023-04-03T09:39:22;102626.56;;;7.02;85.17
28448;BME280;15675;52.870;-1.416;2023-04-03T09:42:19;102637.00;;;7.22;85.15
28448;BME280;15675;52.870;-1.416;2023-04-03T09:44:54;102636.69;;;7.34;84.03
28448;BME280;15675;52.870;-1.416;2023-04-03T09:47:27;102630.25;;;7.62;82.86
28448;BME280;15675;52.870;-1.416;2023-04-03T09:50:08;102631.34;;;7.67;81.76
28448;BME280;15675;52.870;-1.416;2023-04-03T09:52:34;102624.28;;;7.45;81.11
28448;BME280;15675;52.870;-1.416;2023-04-03T09:55:07;102635.66;;;7.48;82.46
28448;BME280;15675;52.870;-1.416;2023-04-03T09:57:33;102628.00;;;7.69;83.92
28448;BME280;15675;52.870;-1.416;2023-04-03T10:00:01;102629.06;;;7.55;83.45
28448;BME280;15675;52.870;-1.416;2023-04-03T10:02:39;102625.00;;;7.42;82.37
28448;BME280;15675;52.870;-1.416;2023-04-03T10:10:45;102627.72;;;7.63;83.01
28448;BME280;15675;52.870;-1.416;2023-04-03T10:13:12;102627.53;;;7.78;81.66
28448;BME280;15675;52.870;-1.416;2023-04-03T10:15:58;102629.66;;;7.87;81.36
28448;BME280;15675;52.870;-1.416;2023-04-03T10:18:42;102616.88;;;8.09;82.15
28448;BME280;15675;52.870;-1.416;2023-04-03T10:23:45;102629.50;;;7.84;81.63
28448;BME280;15675;52.870;-1.416;2023-04-03T10:29:27;102612.19;;;8.41;80.33
28448;BME280;15675;52.870;-1.416;2023-04-03T10:39:56;102609.91;;;8.48;75.63
28448;BME280;15675;52.870;-1.416;2023-04-03T10:50:29;102602.47;;;8.36;74.82
28448;BME280;15675;52.870;-1.416;2023-04-03T10:58:44;102599.94;;;8.78;74.18
28448;BME280;15675;52.870;-1.416;2023-04-03T11:01:21;102604.16;;;8.55;72.69
28448;BME280;15675;52.870;-1.416;2023-04-03T11:03:54;102598.91;;;8.53;71.83
28448;BME280;15675;52.870;-1.416;2023-04-03T11:06:25;102603.53;;;8.81;72.02
28448;BME280;15675;52.870;-1.416;2023-04-03T11:09:02;102598.19;;;8.77;70.39
28448;BME280;15675;52.870;-1.416;2023-04-03T11:11:37;102590.34;;;8.54;71.23
28448;BME280;15675;52.870;-1.416;2023-04-03T11:14:10;102585.47;;;8.83;73.02
28448;BME280;15675;52.870;-1.416;2023-04-03T11:16:51;102583.66;;;9.03;72.10
28448;BME280;15675;52.870;-1.416;2023-04-03T11:19:22;102566.88;;;8.71;72.13
28448;BME280;15675;52.870;-1.416;2023-04-03T11:22:03;102572.78;;;8.89;71.76
28448;BME280;15675;52.870;-1.416;2023-04-03T11:24:32;102568.94;;;9.47;72.28
28448;BME280;15675;52.870;-1.416;2023-04-03T11:27:00;102566.31;;;9.23;70.92
28448;BME280;15675;52.870;-1.416;2023-04-03T11:29:35;102571.22;;;9.38;71.02
28448;BME280;15675;52.870;-1.416;2023-04-03T11:34:51;102557.13;;;9.31;70.03
28448;BME280;15675;52.870;-1.416;2023-04-03T11:37:35;102571.28;;;9.40;69.10
28448;BME280;15675;52.870;-1.416;2023-04-03T11:40:30;102557.47;;;10.12;67.56
28448;BME280;15675;52.870;-1.416;2023-04-03T11:43:28;102555.00;;;10.16;66.19
28448;BME280;15675;52.870;-1.416;2023-04-03T11:45:58;102551.56;;;10.17;66.09
28448;BME280;15675;52.870;-1.416;2023-04-03T11:51:42;102549.69;;;9.63;65.63
28448;BME280;15675;52.870;-1.416;2023-04-03T11:53:48;102546.50;;;9.71;67.10
28448;BME280;15675;52.870;-1.416;2023-04-03T11:59:24;102532.09;;;10.05;67.20
28448;BME280;15675;52.870;-1.416;2023-04-03T12:01:56;102541.47;;;9.75;66.74
28448;BME280;15675;52.870;-1.416;2023-04-03T12:04:27;102534.34;;;9.70;67.61
28448;BME280;15675;52.870;-1.416;2023-04-03T12:07:20;102525.22;;;10.05;69.60
28448;BME280;15675;52.870;-1.416;2023-04-03T12:12:33;102526.63;;;10.47;66.47
28448;BME280;15675;52.870;-1.416;2023-04-03T12:17:43;102533.91;;;10.33;66.67
28448;BME280;15675;52.870;-1.416;2023-04-03T12:20:56;102522.81;;;10.63;67.07
28448;BME280;15675;52.870;-1.416;2023-04-03T12:23:27;102514.78;;;10.29;66.88
28448;BME280;15675;52.870;-1.416;2023-04-03T12:26:00;102524.34;;;10.56;66.95
28448;BME280;15675;52.870;-1.416;2023-04-03T12:28:28;102516.78;;;9.87;66.21
28448;BME280;15675;52.870;-1.416;2023-04-03T12:30:53;102509.97;;;9.90;68.08
28448;BME280;15675;52.870;-1.416;2023-04-03T12:33:51;102515.38;;;10.21;67.84
28448;BME280;15675;52.870;-1.416;2023-04-03T12:36:33;102512.09;;;10.26;69.68
28448;BME280;15675;52.870;-1.416;2023-04-03T12:39:16;102505.75;;;9.92;67.32
28448;BME280;15675;52.870;-1.416;2023-04-03T12:41:57;102501.25;;;10.12;67.53
28448;BME280;15675;52.870;-1.416;2023-04-03T12:46:59;102499.94;;;10.51;65.77
28448;BME280;15675;52.870;-1.416;2023-04-03T12:51:54;102492.00;;;10.21;67.84
28448;BME280;15675;52.870;-1.416;2023-04-03T12:54:26;102495.66;;;10.27;67.00
28448;BME280;15675;52.870;-1.416;2023-04-03T12:57:12;102488.75;;;10.81;67.32
28448;BME280;15675;52.870;-1.416;2023-04-03T12:59:38;102475.66;;;11.37;65.85
28448;BME280;15675;52.870;-1.416;2023-04-03T13:02:19;102472.16;;;10.48;64.78
28448;BME280;15675;52.870;-1.416;2023-04-03T13:04:46;102474.97;;;10.55;63.44
28448;BME280;15675;52.870;-1.416;2023-04-03T13:10:31;102476.00;;;11.17;65.08
28448;BME280;15675;52.870;-1.416;2023-04-03T13:12:56;102457.88;;;11.20;62.40
28448;BME280;15675;52.870;-1.416;2023-04-03T13:15:30;102457.72;;;11.16;64.82
28448;BME280;15675;52.870;-1.416;2023-04-03T13:17:56;102455.84;;;11.10;63.44
28448;BME280;15675;52.870;-1.416;2023-04-03T13:20:28;102456.22;;;11.24;64.57
28448;BME280;15675;52.870;-1.416;2023-04-03T13:23:03;102460.66;;;10.96;64.94
28448;BME280;15675;52.870;-1.416;2023-04-03T13:25:36;102450.56;;;11.37;65.12
28448;BME280;15675;52.870;-1.416;2023-04-03T13:28:05;102444.69;;;11.45;64.46
28448;BME280;15675;52.870;-1.416;2023-04-03T13:30:35;102446.97;;;11.34;64.80
28448;BME280;15675;52.870;-1.416;2023-04-03T13:33:04;102439.59;;;11.49;63.59
28448;BME280;15675;52.870;-1.416;2023-04-03T13:35:38;102432.16;;;11.31;62.22
28448;BME280;15675;52.870;-1.416;2023-04-03T13:40:54;102428.63;;;11.28;63.03
28448;BME280;15675;52.870;-1.416;2023-04-03T13:43:25;102420.69;;;11.55;63.24
28448;BME280;15675;52.870;-1.416;2023-04-03T13:48:39;102417.41;;;11.29;62.90
28448;BME280;15675;52.870;-1.416;2023-04-03T13:51:25;102412.38;;;11.04;62.18
28448;BME280;15675;52.870;-1.416;2023-04-03T13:54:00;102412.63;;;11.14;61.74
28448;BME280;15675;52.870;-1.416;2023-04-03T13:56:34;102407.22;;;11.38;62.17
28448;BME280;15675;52.870;-1.416;2023-04-03T14:07:10;102395.22;;;11.77;60.67
28448;BME280;15675;52.870;-1.416;2023-04-03T14:09:36;102388.72;;;11.59;60.89
28448;BME280;15675;52.870;-1.416;2023-04-03T14:12:06;102390.94;;;11.45;61.02
28448;BME280;15675;52.870;-1.416;2023-04-03T14:14:35;102381.97;;;11.66;60.96
28448;BME280;15675;52.870;-1.416;2023-04-03T14:17:10;102379.97;;;11.90;59.82
28448;BME280;15675;52.870;-1.416;2023-04-03T14:19:38;102385.75;;;11.45;60.71